aviador You're here:

GCFV Decoded Metar

FUERTEVENTURA in SPAIN
Report Time2017-10-17 20:00:00
UTC Time2017-10-17 20:32:58
Flight Rules vfr VFR
Wind320° at 08 kt
W.Decomp.*RWY 01: 5.7 kt HW 5.7 kt LCW
W.Rank320° ranks 14
Current wind is below 320° avg. (8.4)
Visibility9999 m
Phenomena:N/A
Clouds:Few 020 Hf
Expected CloudBase > 2,000 ft AGL from Temp-Dew spread
CeilingNone
Temp25°C (ISA +10)
Dew Point20°C (74% RH)
QNH1022 hPa
Density Alt1,257 ft
Elevation75 ft
Report Wrong Elevation
Raw Report
GCFV 172000Z 32008KT 290V350 9999 FEW020 25/20 Q1022=

Extra information for GCFV:More info

Metar Taf Metar & Taf Last 4 Metars F.Rules Stats Wind Profile Meteogram Temp Stats Airport Information Weather charts Add Link Nearby VenuesMetar ALERT Operation Metar Decoded Social comments